createdAt,value
2017-08-10T00:00:47.230Z,20.15
2017-08-10T00:01:47.604Z,20.2
2017-08-10T00:02:47.729Z,20.22
2017-08-10T00:03:47.648Z,20.16
2017-08-10T00:04:47.680Z,20.16
2017-08-10T00:05:47.718Z,20.12
2017-08-10T00:06:47.755Z,20.11
2017-08-10T00:07:47.456Z,20.19
2017-08-10T00:08:47.812Z,20.18
2017-08-10T00:09:47.534Z,20.07
2017-08-10T00:10:48.307Z,20.12
2017-08-10T00:11:48.020Z,20.15
2017-08-10T00:12:48.359Z,20.18
2017-08-10T00:13:48.078Z,20.22
2017-08-10T00:14:48.116Z,20.2
2017-08-10T00:15:48.171Z,20.16
2017-08-10T00:16:48.511Z,20.15
2017-08-10T00:17:48.946Z,20.18
2017-08-10T00:18:48.994Z,20.16
2017-08-10T00:19:49.016Z,20.2
2017-08-10T00:20:49.047Z,20.11
2017-08-10T00:21:49.108Z,20.15
2017-08-10T00:22:49.132Z,20.12
2017-08-10T00:23:48.831Z,20.07
2017-08-10T00:24:48.858Z,20.22
2017-08-10T00:25:48.896Z,20.12
2017-08-10T00:26:49.261Z,20.05
2017-08-10T00:27:49.290Z,20.11
2017-08-10T00:28:49.332Z,20.15
2017-08-10T00:29:49.374Z,20.15
2017-08-10T00:30:49.405Z,20.15
2017-08-10T00:31:49.443Z,20.11
2017-08-10T00:32:49.488Z,20.15
2017-08-10T00:33:49.514Z,20.05
2017-08-10T00:34:49.559Z,20.07
2017-08-10T00:35:49.585Z,20.04
2017-08-10T00:36:49.285Z,20.05
2017-08-10T00:37:49.443Z,20.08
2017-08-10T00:38:49.148Z,20.12
2017-08-10T00:39:49.909Z,20.05
2017-08-10T00:40:49.957Z,20.05
2017-08-10T00:41:49.978Z,20.01
2017-08-10T00:42:50.117Z,20.15
2017-08-10T00:43:50.056Z,20.02
2017-08-10T00:44:49.759Z,20
2017-08-10T00:45:50.519Z,19.89
2017-08-10T00:46:50.245Z,19.92
2017-08-10T00:47:50.693Z,19.86
2017-08-10T00:48:50.629Z,19.82
2017-08-10T00:49:50.659Z,19.9
2017-08-10T00:50:50.711Z,19.82
2017-08-10T00:51:50.743Z,19.82
2017-08-10T00:52:50.768Z,19.82
2017-08-10T00:53:50.479Z,19.78
2017-08-10T00:54:51.259Z,19.8
2017-08-10T00:55:51.066Z,19.71
2017-08-10T00:56:52.135Z,19.78
2017-08-10T00:57:52.208Z,19.68
2017-08-10T00:58:52.206Z,19.61
2017-08-10T00:59:51.931Z,19.63
2017-08-10T01:00:52.274Z,19.64
2017-08-10T01:01:52.004Z,19.6
2017-08-10T01:02:52.365Z,19.52
2017-08-10T01:03:52.384Z,19.55
2017-08-10T01:04:52.420Z,19.42
2017-08-10T01:05:52.461Z,19.55
2017-08-10T01:06:52.489Z,19.42
2017-08-10T01:07:52.948Z,19.42
2017-08-10T01:08:52.981Z,19.35
2017-08-10T01:09:53.012Z,19.38
2017-08-10T01:10:53.046Z,19.32
2017-08-10T01:11:53.083Z,19.35
2017-08-10T01:12:53.132Z,19.35
2017-08-10T01:13:53.158Z,19.35
2017-08-10T01:14:53.193Z,19.27
2017-08-10T01:15:53.311Z,19.35
2017-08-10T01:16:53.042Z,19.3
2017-08-10T01:17:53.785Z,19.28
2017-08-10T01:18:53.813Z,19.25
2017-08-10T01:19:53.853Z,19.13
2017-08-10T01:20:53.892Z,19.25
2017-08-10T01:21:53.919Z,19.23
2017-08-10T01:22:53.960Z,19.16
2017-08-10T01:23:54.107Z,19.2
2017-08-10T01:24:54.035Z,19.12
2017-08-10T01:25:54.062Z,19.09
2017-08-10T01:26:54.099Z,19.16
2017-08-10T01:27:54.143Z,19.16
2017-08-10T01:28:54.166Z,19.12
2017-08-10T01:29:54.210Z,19.15
2017-08-10T01:30:54.338Z,19.23
2017-08-10T01:31:54.681Z,19.13
2017-08-10T01:32:54.727Z,19.13
2017-08-10T01:33:54.444Z,19.15
2017-08-10T01:34:54.918Z,19.17
2017-08-10T01:35:54.817Z,19.16
2017-08-10T01:36:54.538Z,19.17
2017-08-10T01:37:54.565Z,19.17
2017-08-10T01:38:54.924Z,19.16
2017-08-10T01:39:54.969Z,19.17
2017-08-10T01:40:54.668Z,19.15
2017-08-10T01:41:54.718Z,19.15
2017-08-10T01:42:55.070Z,19.17
2017-08-10T01:43:54.789Z,19.16
2017-08-10T01:44:54.814Z,19.2
2017-08-10T01:45:55.180Z,19.23
2017-08-10T01:46:55.219Z,19.17
2017-08-10T01:47:54.938Z,19.15
2017-08-10T01:48:55.682Z,19.07
2017-08-10T01:49:55.718Z,19.05
2017-08-10T01:50:55.758Z,19.12
2017-08-10T01:51:55.787Z,19.09
2017-08-10T01:52:55.529Z,19.02
2017-08-10T01:53:56.296Z,19.02
2017-08-10T01:54:56.336Z,18.99
2017-08-10T01:55:56.073Z,18.97
2017-08-10T01:56:56.404Z,18.9
2017-08-10T01:57:56.108Z,18.89
2017-08-10T01:58:56.524Z,18.78
2017-08-10T01:59:56.896Z,18.69
2017-08-10T02:00:56.662Z,18.66
2017-08-10T02:01:56.973Z,18.66
2017-08-10T02:02:56.992Z,18.61
2017-08-10T02:03:57.032Z,18.71
2017-08-10T02:04:57.116Z,18.72
2017-08-10T02:05:57.097Z,18.71
2017-08-10T02:06:57.132Z,18.66
2017-08-10T02:07:57.176Z,18.6
2017-08-10T02:08:57.207Z,18.56
2017-08-10T02:09:56.912Z,18.54
2017-08-10T02:10:56.950Z,18.59
2017-08-10T02:11:57.087Z,18.57
2017-08-10T02:12:57.427Z,18.56
2017-08-10T02:13:56.834Z,18.53
2017-08-10T02:14:57.589Z,18.51
2017-08-10T02:15:57.948Z,18.44
2017-08-10T02:16:57.337Z,18.42
2017-08-10T02:17:57.832Z,18.38
2017-08-10T02:18:58.609Z,18.42
2017-08-10T02:19:58.637Z,18.27
2017-08-10T02:20:58.683Z,18.31
2017-08-10T02:21:58.384Z,18.39
2017-08-10T02:22:59.121Z,18.41
2017-08-10T02:23:59.157Z,18.39
2017-08-10T02:24:59.188Z,18.39
2017-08-10T02:25:59.228Z,18.24
2017-08-10T02:26:59.266Z,18.19
2017-08-10T02:27:59.078Z,18.23
2017-08-10T02:28:59.832Z,18.14
2017-08-10T02:29:59.881Z,18.1
2017-08-10T02:31:00.037Z,18.17
2017-08-10T02:31:59.739Z,18.13
2017-08-10T02:33:00.120Z,18.05
2017-08-10T02:34:00.131Z,18.03
2017-08-10T02:34:59.539Z,18.03
2017-08-10T02:35:59.877Z,17.96
2017-08-10T02:37:00.239Z,18.02
2017-08-10T02:37:59.944Z,17.95
2017-08-10T02:39:00.708Z,18.08
2017-08-10T02:40:00.736Z,18.02
2017-08-10T02:41:00.197Z,18.13
2017-08-10T02:42:01.284Z,18.06
2017-08-10T02:43:01.320Z,18.11
2017-08-10T02:44:01.360Z,18.14
2017-08-10T02:45:01.386Z,18.19
2017-08-10T02:46:01.451Z,18.19
2017-08-10T02:47:01.155Z,18.23
2017-08-10T02:48:01.490Z,18.11
2017-08-10T02:49:01.539Z,18.14
2017-08-10T02:50:01.563Z,18.11
2017-08-10T02:51:01.595Z,18.02
2017-08-10T02:52:00.996Z,18.05
2017-08-10T02:53:02.088Z,18.11
2017-08-10T02:54:01.889Z,18.08
2017-08-10T02:55:02.147Z,18.1
2017-08-10T02:56:01.902Z,18.08
2017-08-10T02:57:01.892Z,17.99
2017-08-10T02:58:02.320Z,17.98
2017-08-10T02:59:02.360Z,18.05
2017-08-10T03:00:02.387Z,18.08
2017-08-10T03:01:02.421Z,18.02
2017-08-10T03:02:02.456Z,18.03
2017-08-10T03:03:02.187Z,18.01
2017-08-10T03:04:02.214Z,17.99
2017-08-10T03:05:02.704Z,18.01
2017-08-10T03:06:02.707Z,18.03
2017-08-10T03:07:02.744Z,17.99
2017-08-10T03:08:02.784Z,18.05
2017-08-10T03:09:02.813Z,18.05
2017-08-10T03:10:02.847Z,18.01
2017-08-10T03:11:02.888Z,18.06
2017-08-10T03:12:02.613Z,18.06
2017-08-10T03:13:02.956Z,18.01
2017-08-10T03:14:02.990Z,18.03
2017-08-10T03:15:03.030Z,18.03
2017-08-10T03:16:03.552Z,17.95
2017-08-10T03:17:03.582Z,18.01
2017-08-10T03:18:03.617Z,18.02
2017-08-10T03:19:03.655Z,18.01
2017-08-10T03:20:04.102Z,17.95
2017-08-10T03:21:03.786Z,18.02
2017-08-10T03:22:04.179Z,17.99
2017-08-10T03:23:03.861Z,18.01
2017-08-10T03:24:04.246Z,18.08
2017-08-10T03:25:04.799Z,18.03
2017-08-10T03:26:04.440Z,18.05
2017-08-10T03:27:04.877Z,17.96
2017-08-10T03:28:05.641Z,17.99
2017-08-10T03:29:05.682Z,18.01
2017-08-10T03:30:05.390Z,17.99
2017-08-10T03:31:05.744Z,18.01
2017-08-10T03:32:05.787Z,18.05
2017-08-10T03:33:05.489Z,18.05
2017-08-10T03:34:06.237Z,17.98
2017-08-10T03:35:06.264Z,17.99
2017-08-10T03:36:06.765Z,18.05
2017-08-10T03:37:06.829Z,18.06
2017-08-10T03:38:06.782Z,18.06
2017-08-10T03:39:06.494Z,18.01
2017-08-10T03:40:07.249Z,18.11
2017-08-10T03:41:07.289Z,18.11
2017-08-10T03:42:07.004Z,18.08
2017-08-10T03:43:07.363Z,18.11
2017-08-10T03:44:07.072Z,18.11
2017-08-10T03:45:07.182Z,18.02
2017-08-10T03:46:07.926Z,18.13
2017-08-10T03:47:07.961Z,18.05
2017-08-10T03:48:07.667Z,17.99
2017-08-10T03:49:08.031Z,17.96
2017-08-10T03:50:07.785Z,18.03
2017-08-10T03:51:08.229Z,18.01
2017-08-10T03:52:08.270Z,17.98
2017-08-10T03:53:07.986Z,18.02
2017-08-10T03:54:08.516Z,18.02
2017-08-10T03:55:08.548Z,18.01
2017-08-10T03:56:08.809Z,18.01
2017-08-10T03:57:08.528Z,18.02
2017-08-10T03:58:08.884Z,18.02
2017-08-10T03:59:08.915Z,18.01
2017-08-10T04:00:15.267Z,18.02
2017-08-10T04:01:08.943Z,17.96
2017-08-10T04:02:09.103Z,18.03
2017-08-10T04:03:09.006Z,18.01
2017-08-10T04:04:09.036Z,18.03
2017-08-10T04:05:08.808Z,17.99
2017-08-10T04:06:08.824Z,18.02
2017-08-10T04:07:09.145Z,17.99
2017-08-10T04:08:08.913Z,18.01
2017-08-10T04:09:09.209Z,18.14
2017-08-10T04:10:09.346Z,18.05
2017-08-10T04:11:08.969Z,18.01
2017-08-10T04:12:09.324Z,18.1
2017-08-10T04:13:09.354Z,18.08
2017-08-10T04:14:09.114Z,18.05
2017-08-10T04:15:09.503Z,18.01
2017-08-10T04:16:09.463Z,18.08
2017-08-10T04:17:09.489Z,18.06
2017-08-10T04:18:09.214Z,18.13
2017-08-10T04:19:09.250Z,18.05
2017-08-10T04:20:09.694Z,18.08
2017-08-10T04:21:10.083Z,18.14
2017-08-10T04:22:10.110Z,18.14
2017-08-10T04:23:10.186Z,18.14
2017-08-10T04:24:10.176Z,18.14
2017-08-10T04:25:10.247Z,18.1
2017-08-10T04:26:10.586Z,18.14
2017-08-10T04:27:10.620Z,18.13
2017-08-10T04:28:10.652Z,18.19
2017-08-10T04:29:10.364Z,18.16
2017-08-10T04:30:11.281Z,18.16
2017-08-10T04:31:11.083Z,18.14
2017-08-10T04:32:11.137Z,18.14
2017-08-10T04:33:11.167Z,18.14
2017-08-10T04:34:10.907Z,18.11
2017-08-10T04:35:11.519Z,18.24
2017-08-10T04:36:11.282Z,18.24
2017-08-10T04:37:11.310Z,18.27
2017-08-10T04:38:10.999Z,18.35
2017-08-10T04:39:11.406Z,18.35
2017-08-10T04:40:11.764Z,18.41
2017-08-10T04:41:12.146Z,18.41
2017-08-10T04:42:11.871Z,18.38
2017-08-10T04:43:11.896Z,18.44
2017-08-10T04:44:12.274Z,18.44
2017-08-10T04:45:12.287Z,18.57
2017-08-10T04:46:12.311Z,18.53
2017-08-10T04:47:12.067Z,18.56
2017-08-10T04:48:12.388Z,18.59
2017-08-10T04:49:12.422Z,18.56
2017-08-10T04:50:12.150Z,18.6
2017-08-10T04:51:12.488Z,18.71
2017-08-10T04:52:12.566Z,18.74
2017-08-10T04:53:12.578Z,18.75
2017-08-10T04:54:12.619Z,18.74
2017-08-10T04:55:12.634Z,18.78
2017-08-10T04:56:12.679Z,18.76
2017-08-10T04:57:12.709Z,18.84
2017-08-10T04:58:12.744Z,18.96
2017-08-10T04:59:12.486Z,18.91
2017-08-10T05:00:13.152Z,18.9
2017-08-10T05:01:13.179Z,19
2017-08-10T05:02:13.319Z,18.93
2017-08-10T05:03:12.956Z,19.02
2017-08-10T05:04:13.321Z,18.97
2017-08-10T05:05:13.663Z,19.02
2017-08-10T05:06:14.050Z,19.06
2017-08-10T05:07:14.412Z,18.96
2017-08-10T05:08:14.409Z,19
2017-08-10T05:09:14.451Z,19.1
2017-08-10T05:10:14.513Z,19.02
2017-08-10T05:11:14.204Z,18.97
2017-08-10T05:12:13.918Z,19.02
2017-08-10T05:13:14.624Z,18.97
2017-08-10T05:14:14.044Z,19.06
2017-08-10T05:15:14.710Z,19.02
2017-08-10T05:16:14.742Z,19
2017-08-10T05:17:14.140Z,18.94
2017-08-10T05:18:14.808Z,19.12
2017-08-10T05:19:14.857Z,19.15
2017-08-10T05:20:14.588Z,19.12
2017-08-10T05:21:14.589Z,19.23
2017-08-10T05:22:14.954Z,19.23
2017-08-10T05:23:14.983Z,19.23
2017-08-10T05:24:14.712Z,19.28
2017-08-10T05:25:14.760Z,19.32
2017-08-10T05:26:15.099Z,19.35
2017-08-10T05:27:15.142Z,19.37
2017-08-10T05:28:15.737Z,19.37
2017-08-10T05:29:14.916Z,19.37
2017-08-10T05:30:15.587Z,19.46
2017-08-10T05:31:15.612Z,19.46
2017-08-10T05:32:15.644Z,19.49
2017-08-10T05:33:15.687Z,19.49
2017-08-10T05:34:15.708Z,19.52
2017-08-10T05:35:15.444Z,19.38
2017-08-10T05:36:15.508Z,19.35
2017-08-10T05:37:16.124Z,19.28
2017-08-10T05:38:15.533Z,19.28
2017-08-10T05:39:16.203Z,19.28
2017-08-10T05:40:16.233Z,19.28
2017-08-10T05:41:16.229Z,19.2
2017-08-10T05:42:16.599Z,19.16
2017-08-10T05:43:16.307Z,19.23
2017-08-10T05:44:16.688Z,19.19
2017-08-10T05:45:16.716Z,19.23
2017-08-10T05:46:16.435Z,19.17
2017-08-10T05:47:17.074Z,19.16
2017-08-10T05:48:16.775Z,19.23
2017-08-10T05:49:17.152Z,19.17
2017-08-10T05:50:16.873Z,19.23
2017-08-10T05:51:17.545Z,19.2
2017-08-10T05:52:17.666Z,19.15
2017-08-10T05:53:17.609Z,19.2
2017-08-10T05:54:17.357Z,19.15
2017-08-10T05:55:18.013Z,19.19
2017-08-10T05:56:18.384Z,19.16
2017-08-10T05:57:18.088Z,19.2
2017-08-10T05:58:17.805Z,19.27
2017-08-10T05:59:18.153Z,19.2
2017-08-10T06:00:17.533Z,19.25
2017-08-10T06:01:18.208Z,19.1
2017-08-10T06:02:18.250Z,19.2
2017-08-10T06:03:18.280Z,19.24
2017-08-10T06:04:17.983Z,19.3
2017-08-10T06:05:18.022Z,19.23
2017-08-10T06:06:18.404Z,19.28
2017-08-10T06:07:18.091Z,19.25
2017-08-10T06:08:18.458Z,19.28
2017-08-10T06:09:18.806Z,19.31
2017-08-10T06:10:18.827Z,19.31
2017-08-10T06:11:19.161Z,19.37
2017-08-10T06:12:19.229Z,19.35
2017-08-10T06:13:19.256Z,19.5
2017-08-10T06:14:19.597Z,19.46
2017-08-10T06:15:19.282Z,19.64
2017-08-10T06:16:19.680Z,19.64
2017-08-10T06:17:19.699Z,19.61
2017-08-10T06:18:19.741Z,19.79
2017-08-10T06:19:19.766Z,19.74
2017-08-10T06:20:19.490Z,19.89
2017-08-10T06:21:19.508Z,19.98
2017-08-10T06:22:19.829Z,20.01
2017-08-10T06:23:20.225Z,20.22
2017-08-10T06:24:20.574Z,20.34
2017-08-10T06:25:19.978Z,20.3
2017-08-10T06:26:20.378Z,20.4
2017-08-10T06:27:20.105Z,20.38
2017-08-10T06:28:21.093Z,20.4
2017-08-10T06:29:20.790Z,20.4
2017-08-10T06:30:21.146Z,20.46
2017-08-10T06:31:21.180Z,20.44
2017-08-10T06:32:21.212Z,20.51
2017-08-10T06:33:21.569Z,20.56
2017-08-10T06:34:21.321Z,20.6
2017-08-10T06:35:22.003Z,20.51
2017-08-10T06:36:22.036Z,20.53
2017-08-10T06:37:21.741Z,20.56
2017-08-10T06:38:21.772Z,20.4
2017-08-10T06:39:22.175Z,20.49
2017-08-10T06:40:22.510Z,20.44
2017-08-10T06:41:22.868Z,20.53
2017-08-10T06:42:22.598Z,20.57
2017-08-10T06:43:22.941Z,20.63
2017-08-10T06:44:22.988Z,20.6
2017-08-10T06:45:22.678Z,20.64
2017-08-10T06:46:23.338Z,20.57
2017-08-10T06:47:23.378Z,20.56
2017-08-10T06:48:23.440Z,20.6
2017-08-10T06:49:23.482Z,20.6
2017-08-10T06:50:23.520Z,20.68
2017-08-10T06:51:23.537Z,20.61
2017-08-10T06:52:22.979Z,20.57
2017-08-10T06:53:23.610Z,20.56
2017-08-10T06:54:23.012Z,20.66
2017-08-10T06:55:23.368Z,20.72
2017-08-10T06:56:24.020Z,20.67
2017-08-10T06:57:23.736Z,20.71
2017-08-10T06:58:24.087Z,20.68
2017-08-10T06:59:23.790Z,20.81
2017-08-10T07:00:24.466Z,20.78
2017-08-10T07:01:24.161Z,20.76
2017-08-10T07:02:24.217Z,20.79
2017-08-10T07:03:24.565Z,20.88
2017-08-10T07:04:24.583Z,20.97
2017-08-10T07:05:24.628Z,21.03
2017-08-10T07:06:24.647Z,21.13
2017-08-10T07:07:24.415Z,20.98
2017-08-10T07:08:24.445Z,21.04
2017-08-10T07:09:24.151Z,21.06
2017-08-10T07:10:24.834Z,21.16
2017-08-10T07:11:24.860Z,21.25
2017-08-10T07:12:24.654Z,21.3
2017-08-10T07:13:24.603Z,21.33
2017-08-10T07:14:24.979Z,21.3
2017-08-10T07:15:25.061Z,21.3
2017-08-10T07:16:24.719Z,21.3
2017-08-10T07:17:25.350Z,21.3
2017-08-10T07:18:25.409Z,21.38
2017-08-10T07:19:25.127Z,21.36
2017-08-10T07:20:25.466Z,21.49
2017-08-10T07:21:25.499Z,21.33
2017-08-10T07:22:25.215Z,21.33
2017-08-10T07:23:25.887Z,21.34
2017-08-10T07:24:25.930Z,21.33
2017-08-10T07:25:25.620Z,21.33
2017-08-10T07:26:26.281Z,21.22
2017-08-10T07:27:26.345Z,21.3
2017-08-10T07:28:26.669Z,21.33
2017-08-10T07:29:26.657Z,21.22
2017-08-10T07:30:26.716Z,21.37
2017-08-10T07:31:26.754Z,21.34
2017-08-10T07:32:26.513Z,21.36
2017-08-10T07:33:27.484Z,21.38
2017-08-10T07:34:27.628Z,21.36
2017-08-10T07:35:27.252Z,21.33
2017-08-10T07:36:27.589Z,21.34
2017-08-10T07:37:27.971Z,21.37
2017-08-10T07:38:28.041Z,21.56
2017-08-10T07:39:28.027Z,21.74
2017-08-10T07:40:28.077Z,21.92
2017-08-10T07:41:28.091Z,21.97
2017-08-10T07:42:27.820Z,22.38
2017-08-10T07:43:28.172Z,22.59
2017-08-10T07:44:28.222Z,23.03
2017-08-10T07:45:27.958Z,23.42
2017-08-10T07:46:28.008Z,23.74
2017-08-10T07:47:28.333Z,23.93
2017-08-10T07:48:28.356Z,24.21
2017-08-10T07:49:28.086Z,24.44
2017-08-10T07:50:28.439Z,24.42
2017-08-10T07:51:28.449Z,24.42
2017-08-10T07:52:28.491Z,24.45
2017-08-10T07:53:28.852Z,24.33
2017-08-10T07:54:28.273Z,24.14
2017-08-10T07:55:28.959Z,24.19
2017-08-10T07:56:29.011Z,24.09
2017-08-10T07:57:29.047Z,24.02
2017-08-10T07:58:29.074Z,23.93
2017-08-10T07:59:28.849Z,24
2017-08-10T08:00:29.260Z,24.12
2017-08-10T08:01:29.287Z,24.07
2017-08-10T08:02:29.328Z,24
2017-08-10T08:03:29.697Z,24.11
2017-08-10T08:04:29.742Z,24.14
2017-08-10T08:05:29.782Z,24.29
2017-08-10T08:06:29.827Z,24.42
2017-08-10T08:07:29.865Z,24.64
2017-08-10T08:08:29.892Z,24.7
2017-08-10T08:09:29.923Z,24.89
2017-08-10T08:10:29.966Z,25.08
2017-08-10T08:11:29.711Z,25.3
2017-08-10T08:12:30.031Z,25.34
2017-08-10T08:13:30.147Z,25.39
2017-08-10T08:14:29.521Z,25.38
2017-08-10T08:15:30.485Z,25.23
2017-08-10T08:16:30.526Z,25.17
2017-08-10T08:17:30.590Z,25.09
2017-08-10T08:18:30.605Z,25
2017-08-10T08:19:30.652Z,24.8
2017-08-10T08:20:30.733Z,24.55
2017-08-10T08:21:30.377Z,24.48
2017-08-10T08:22:30.754Z,24.42
2017-08-10T08:23:30.811Z,24.39
2017-08-10T08:24:30.824Z,24.39
2017-08-10T08:25:30.580Z,24.48
2017-08-10T08:26:30.936Z,24.42
2017-08-10T08:27:30.981Z,24.4
2017-08-10T08:28:30.983Z,24.34
2017-08-10T08:29:31.061Z,24.3
2017-08-10T08:30:30.772Z,24.26
2017-08-10T08:31:30.787Z,24.29
2017-08-10T08:32:30.830Z,24.26
2017-08-10T08:33:30.907Z,24.18
2017-08-10T08:34:30.932Z,24.07
2017-08-10T08:35:31.326Z,24.07
2017-08-10T08:36:31.413Z,23.92
2017-08-10T08:37:32.393Z,23.97
2017-08-10T08:38:32.462Z,23.97
2017-08-10T08:39:32.485Z,24.02
2017-08-10T08:40:32.955Z,24.08
2017-08-10T08:41:32.823Z,24.08
2017-08-10T08:42:32.553Z,24.03
2017-08-10T08:43:33.907Z,23.96
2017-08-10T08:44:33.646Z,23.94
2017-08-10T08:45:33.654Z,23.96
2017-08-10T08:46:33.058Z,24.04
2017-08-10T08:47:33.741Z,24.19
2017-08-10T08:48:33.825Z,24.18
2017-08-10T08:49:33.823Z,24.24
2017-08-10T08:50:33.859Z,24.29
2017-08-10T08:51:33.626Z,24.3
2017-08-10T08:52:33.972Z,24.29
2017-08-10T08:53:34.012Z,24.3
2017-08-10T08:54:34.026Z,24.39
2017-08-10T08:55:34.085Z,24.4
2017-08-10T08:56:34.107Z,24.4
2017-08-10T08:57:34.166Z,24.27
2017-08-10T08:58:33.888Z,24.17
2017-08-10T08:59:34.224Z,24.08
2017-08-10T09:00:34.287Z,23.92
2017-08-10T09:01:34.048Z,23.9
2017-08-10T09:02:34.338Z,23.82
2017-08-10T09:03:34.417Z,24.02
2017-08-10T09:04:34.097Z,24.04
2017-08-10T09:05:34.485Z,24.07
2017-08-10T09:06:34.524Z,23.99
2017-08-10T09:07:34.202Z,24.07
2017-08-10T09:08:34.266Z,24.02
2017-08-10T09:09:34.604Z,23.94
2017-08-10T09:10:34.347Z,23.94
2017-08-10T09:11:34.685Z,23.96
2017-08-10T09:12:34.708Z,24.03
2017-08-10T09:13:34.734Z,24.09
2017-08-10T09:14:35.110Z,24.12
2017-08-10T09:15:34.834Z,24.07
2017-08-10T09:16:35.494Z,24.18
2017-08-10T09:17:35.536Z,24.15
2017-08-10T09:18:35.591Z,24.15
2017-08-10T09:19:35.301Z,24.08
2017-08-10T09:20:35.669Z,24.04
2017-08-10T09:21:35.668Z,24.11
2017-08-10T09:22:35.735Z,24.04
2017-08-10T09:23:35.783Z,24.12
2017-08-10T09:24:35.502Z,24.04
2017-08-10T09:25:35.829Z,24.09
2017-08-10T09:26:35.863Z,23.93
2017-08-10T09:27:35.902Z,23.92
2017-08-10T09:28:35.941Z,23.87
2017-08-10T09:29:35.987Z,23.87
2017-08-10T09:30:36.013Z,23.9
2017-08-10T09:31:36.074Z,23.93
2017-08-10T09:32:35.796Z,24.03
2017-08-10T09:33:35.837Z,24.09
2017-08-10T09:34:36.526Z,24.19
2017-08-10T09:35:36.544Z,24.32
2017-08-10T09:36:36.629Z,24.37
2017-08-10T09:37:36.671Z,24.54
2017-08-10T09:38:36.663Z,24.54
2017-08-10T09:39:36.366Z,24.67
2017-08-10T09:40:36.740Z,24.74
2017-08-10T09:41:37.062Z,24.67
2017-08-10T09:42:37.133Z,24.66
2017-08-10T09:43:37.136Z,24.7
2017-08-10T09:44:37.221Z,24.67
2017-08-10T09:45:37.246Z,24.64
2017-08-10T09:46:36.964Z,24.67
2017-08-10T09:47:37.335Z,24.82
2017-08-10T09:48:37.327Z,24.89
2017-08-10T09:49:37.369Z,24.93
2017-08-10T09:50:37.439Z,25.11
2017-08-10T09:51:37.448Z,25.29
2017-08-10T09:52:37.505Z,25.33
2017-08-10T09:53:37.222Z,25.44
2017-08-10T09:54:37.902Z,25.42
2017-08-10T09:55:37.942Z,25.54
2017-08-10T09:56:37.633Z,25.56
2017-08-10T09:57:38.302Z,25.67
2017-08-10T09:58:38.338Z,25.71
2017-08-10T09:59:38.065Z,25.88
2017-08-10T10:00:38.410Z,25.85
2017-08-10T10:01:38.140Z,26.09
2017-08-10T10:02:38.813Z,26.3
2017-08-10T10:03:38.843Z,26.53
2017-08-10T10:04:38.882Z,26.91
2017-08-10T10:05:38.614Z,27.11
2017-08-10T10:06:38.652Z,27.43
2017-08-10T10:07:39.006Z,27.96
2017-08-10T10:08:38.745Z,28.43
2017-08-10T10:09:39.105Z,28.55
2017-08-10T10:10:39.443Z,28.79
2017-08-10T10:11:39.484Z,29.05
2017-08-10T10:12:39.212Z,29.36
2017-08-10T10:13:39.855Z,29.72
2017-08-10T10:14:39.899Z,29.91
2017-08-10T10:15:40.231Z,30.34
2017-08-10T10:16:40.266Z,30.84
2017-08-10T10:17:40.608Z,31.08
2017-08-10T10:18:40.662Z,31.13
2017-08-10T10:19:40.683Z,31.19
2017-08-10T10:20:40.746Z,31.55
2017-08-10T10:21:41.124Z,31.86
2017-08-10T10:22:40.887Z,32.31
2017-08-10T10:23:41.860Z,32.87
2017-08-10T10:24:41.593Z,33.56
2017-08-10T10:25:41.927Z,34.66
2017-08-10T10:26:41.993Z,35.67
2017-08-10T10:27:42.001Z,36.62
2017-08-10T10:28:41.797Z,37.36
2017-08-10T10:29:42.083Z,38.03
2017-08-10T10:30:42.124Z,38.52
2017-08-10T10:31:42.162Z,39.01
2017-08-10T10:32:42.197Z,39.57
2017-08-10T10:33:41.952Z,40.03
2017-08-10T10:34:42.284Z,40.44
2017-08-10T10:35:42.334Z,40.65
2017-08-10T10:36:42.062Z,41.03
2017-08-10T10:37:42.432Z,41.03
2017-08-10T10:38:42.511Z,41.26
2017-08-10T10:39:43.188Z,41.71
2017-08-10T10:40:43.225Z,42.15
2017-08-10T10:41:42.657Z,42.66
2017-08-10T10:42:43.279Z,43.1
2017-08-10T10:43:43.980Z,43.32
2017-08-10T10:44:43.712Z,43.42
2017-08-10T10:45:43.724Z,43.43
2017-08-10T10:46:44.167Z,43.73
2017-08-10T10:47:43.850Z,43.99
2017-08-10T10:48:44.218Z,44.12
2017-08-10T10:49:44.272Z,44.24
2017-08-10T10:50:44.287Z,44.14
2017-08-10T10:51:44.341Z,44.12
2017-08-10T10:52:44.383Z,44.19
2017-08-10T10:53:44.416Z,44.33
2017-08-10T10:54:44.474Z,44.43
2017-08-10T10:55:44.507Z,44.46
2017-08-10T10:56:44.246Z,44.5
2017-08-10T10:57:44.578Z,44.65
2017-08-10T10:58:44.626Z,44.85
2017-08-10T10:59:44.348Z,45.07
2017-08-10T11:00:44.728Z,45.32
2017-08-10T11:01:44.823Z,44.45
2017-08-10T11:02:44.788Z,43.17
2017-08-10T11:03:45.460Z,41.87
2017-08-10T11:04:45.228Z,40.32
2017-08-10T11:05:44.660Z,39.18
2017-08-10T11:06:45.062Z,38.03
2017-08-10T11:07:44.994Z,37.15
2017-08-10T11:08:45.323Z,35.89
2017-08-10T11:09:45.070Z,35.11
2017-08-10T11:10:45.400Z,34.3
2017-08-10T11:11:45.798Z,33.96
2017-08-10T11:12:45.484Z,33.71
2017-08-10T11:13:46.164Z,33.81
2017-08-10T11:14:46.202Z,33.84
2017-08-10T11:15:46.242Z,34.12
2017-08-10T11:16:46.276Z,34.21
2017-08-10T11:17:46.288Z,34.32
2017-08-10T11:18:46.662Z,34.39
2017-08-10T11:19:46.718Z,34.24
2017-08-10T11:20:46.427Z,34.18
2017-08-10T11:21:46.793Z,34.22
2017-08-10T11:22:46.523Z,34.34
2017-08-10T11:23:46.529Z,34.39
2017-08-10T11:24:46.600Z,34.45
2017-08-10T11:25:46.987Z,34.45
2017-08-10T11:26:46.990Z,34.46
2017-08-10T11:27:46.758Z,34.45
2017-08-10T11:28:47.414Z,34.52
2017-08-10T11:29:47.126Z,34.32
2017-08-10T11:30:47.506Z,34.05
2017-08-10T11:31:47.551Z,33.58
2017-08-10T11:32:47.590Z,33.17
2017-08-10T11:33:47.642Z,32.84
2017-08-10T11:34:47.665Z,32.71
2017-08-10T11:35:47.394Z,32.62
2017-08-10T11:36:47.740Z,32.67
2017-08-10T11:37:48.093Z,32.75
2017-08-10T11:38:47.840Z,33.02
2017-08-10T11:39:48.505Z,33.59
2017-08-10T11:40:48.224Z,34.45
2017-08-10T11:41:48.608Z,35.18
2017-08-10T11:42:48.296Z,35.68
2017-08-10T11:43:48.659Z,35.64
2017-08-10T11:44:48.765Z,35.43
2017-08-10T11:45:48.437Z,34.9
2017-08-10T11:46:48.425Z,34.27
2017-08-10T11:47:49.097Z,33.66
2017-08-10T11:48:49.137Z,32.9
2017-08-10T11:49:48.888Z,32.39
2017-08-10T11:50:49.223Z,31.74
2017-08-10T11:51:49.289Z,31.16
2017-08-10T11:52:49.321Z,30.73
2017-08-10T11:53:49.383Z,30.32
2017-08-10T11:54:50.060Z,29.88
2017-08-10T11:55:50.101Z,29.5
2017-08-10T11:56:50.137Z,29.05
2017-08-10T11:57:49.843Z,28.85
2017-08-10T11:58:49.910Z,28.53
2017-08-10T11:59:49.618Z,28.43
2017-08-10T12:00:50.298Z,28.27
2017-08-10T12:01:50.653Z,28.23
2017-08-10T12:02:50.070Z,28.14
2017-08-10T12:03:50.121Z,28.14
2017-08-10T12:04:50.154Z,28.12
2017-08-10T12:05:50.508Z,28.11
2017-08-10T12:06:50.853Z,28.09
2017-08-10T12:07:51.226Z,28.09
2017-08-10T12:08:51.269Z,28.09
2017-08-10T12:09:51.312Z,27.96
2017-08-10T12:10:51.306Z,27.96
2017-08-10T12:11:51.364Z,27.93
2017-08-10T12:12:51.485Z,27.93
2017-08-10T12:13:51.792Z,27.72
2017-08-10T12:14:51.826Z,27.68
2017-08-10T12:15:51.880Z,27.55
2017-08-10T12:16:51.923Z,27.53
2017-08-10T12:17:51.704Z,27.51
2017-08-10T12:18:52.037Z,27.53
2017-08-10T12:19:52.076Z,27.52
2017-08-10T12:20:52.107Z,27.42
2017-08-10T12:21:52.425Z,27.41
2017-08-10T12:22:52.469Z,27.51
2017-08-10T12:23:52.538Z,27.43
2017-08-10T12:24:52.576Z,27.46
2017-08-10T12:25:52.583Z,27.43
2017-08-10T12:26:52.301Z,27.37
2017-08-10T12:27:52.624Z,27.36
2017-08-10T12:28:52.700Z,27.3
2017-08-10T12:29:53.023Z,27.24
2017-08-10T12:30:53.087Z,27.13
2017-08-10T12:31:53.108Z,27.15
2017-08-10T12:32:53.144Z,27.31
2017-08-10T12:33:53.208Z,27.33
2017-08-10T12:34:53.219Z,27.38
2017-08-10T12:35:52.960Z,27.34
2017-08-10T12:36:53.519Z,27.41
2017-08-10T12:37:53.336Z,27.51
2017-08-10T12:38:53.383Z,27.59
2017-08-10T12:39:53.440Z,27.49
2017-08-10T12:40:53.459Z,27.53
2017-08-10T12:41:53.186Z,27.64
2017-08-10T12:42:53.559Z,27.87
2017-08-10T12:43:53.263Z,27.98
2017-08-10T12:44:53.937Z,28.11
2017-08-10T12:45:53.961Z,28.2
2017-08-10T12:46:54.063Z,28.11
2017-08-10T12:47:54.080Z,28.12
2017-08-10T12:48:54.434Z,28.11
2017-08-10T12:49:54.169Z,28.14
2017-08-10T12:50:54.868Z,28.16
2017-08-10T12:51:54.568Z,28.09
2017-08-10T12:52:54.921Z,28.09
2017-08-10T12:53:54.665Z,28.12
2017-08-10T12:54:54.995Z,28.12
2017-08-10T12:55:55.038Z,28.05
2017-08-10T12:56:55.091Z,28.11